createdAt,value
2019-02-21T00:02:29.442Z,7.29
2019-02-21T00:04:59.385Z,7.30
2019-02-21T00:07:29.286Z,7.32
2019-02-21T00:09:59.159Z,7.32
2019-02-21T00:12:29.460Z,7.32
2019-02-21T00:14:59.330Z,7.32
2019-02-21T00:17:29.291Z,7.32
2019-02-21T00:19:59.445Z,7.33
2019-02-21T00:22:29.327Z,7.34
2019-02-21T00:24:59.121Z,7.34
2019-02-21T00:27:29.388Z,7.34
2019-02-21T00:29:59.699Z,7.33
2019-02-21T00:32:30.021Z,7.31
2019-02-21T00:34:59.893Z,7.29
2019-02-21T00:37:29.706Z,7.28
2019-02-21T00:39:59.998Z,7.23
2019-02-21T00:42:31.127Z,7.21
2019-02-21T00:45:01.006Z,7.19
2019-02-21T00:47:31.027Z,7.18
2019-02-21T00:50:00.913Z,7.16
2019-02-21T00:52:31.571Z,7.17
2019-02-21T00:55:01.483Z,7.19
2019-02-21T00:57:31.424Z,7.21
2019-02-21T01:00:01.965Z,7.21
2019-02-21T01:02:33.789Z,7.16
2019-02-21T01:05:03.947Z,7.11
2019-02-21T01:07:35.596Z,7.08
2019-02-21T01:10:05.645Z,7.06
2019-02-21T01:12:35.636Z,7.04
2019-02-21T01:15:06.828Z,6.99
2019-02-21T01:17:36.834Z,6.98
2019-02-21T01:20:07.023Z,6.96
2019-02-21T01:22:37.937Z,6.95
2019-02-21T01:25:08.137Z,6.95
2019-02-21T01:27:38.077Z,6.97
2019-02-21T01:30:08.624Z,6.96
2019-02-21T01:32:38.941Z,6.97
2019-02-21T01:35:08.911Z,6.96
2019-02-21T01:37:38.819Z,6.95
2019-02-21T01:40:08.908Z,6.96
2019-02-21T01:42:39.822Z,6.97
2019-02-21T01:45:10.159Z,6.96
2019-02-21T01:47:40.152Z,6.97
2019-02-21T01:50:10.207Z,6.98
2019-02-21T01:52:40.013Z,6.99
2019-02-21T01:55:10.533Z,7.00
2019-02-21T01:57:40.859Z,7.02
2019-02-21T02:00:10.923Z,7.03
2019-02-21T02:02:41.335Z,7.05
2019-02-21T02:05:11.424Z,7.08
2019-02-21T02:07:41.319Z,7.10
2019-02-21T02:10:11.753Z,7.15
2019-02-21T02:12:41.699Z,7.19
2019-02-21T02:15:12.091Z,7.24
2019-02-21T02:17:41.994Z,7.28
2019-02-21T02:20:11.954Z,7.32
2019-02-21T02:22:41.840Z,7.34
2019-02-21T02:25:12.163Z,7.38
2019-02-21T02:27:42.689Z,7.39
2019-02-21T02:30:12.639Z,7.41
2019-02-21T02:32:42.879Z,7.43
2019-02-21T02:35:13.513Z,7.45
2019-02-21T02:37:43.459Z,7.47
2019-02-21T02:40:13.408Z,7.50
2019-02-21T02:42:44.145Z,7.53
2019-02-21T02:45:14.083Z,7.55
2019-02-21T02:47:44.409Z,7.58
2019-02-21T02:50:14.283Z,7.60
2019-02-21T02:52:44.152Z,7.61
2019-02-21T02:55:14.305Z,7.62
2019-02-21T02:57:44.838Z,7.64
2019-02-21T03:00:15.374Z,7.67
2019-02-21T03:02:45.675Z,7.70
2019-02-21T03:05:15.816Z,7.70
2019-02-21T03:07:46.073Z,7.72
2019-02-21T03:10:16.233Z,7.72
2019-02-21T03:12:47.160Z,7.74
2019-02-21T03:15:18.103Z,7.74
2019-02-21T03:17:47.912Z,7.75
2019-02-21T03:20:17.797Z,7.76
2019-02-21T03:22:47.683Z,7.78
2019-02-21T03:25:17.969Z,7.79
2019-02-21T03:27:48.264Z,7.80
2019-02-21T03:30:18.221Z,7.80
2019-02-21T03:32:48.121Z,7.79
2019-02-21T03:35:18.072Z,7.81
2019-02-21T03:37:48.915Z,7.82
2019-02-21T03:40:18.852Z,7.83
2019-02-21T03:42:48.741Z,7.83
2019-02-21T03:45:18.751Z,7.83
2019-02-21T03:47:48.833Z,7.84
2019-02-21T03:50:19.177Z,7.84
2019-02-21T03:52:49.106Z,7.83
2019-02-21T03:55:19.428Z,7.82
2019-02-21T03:57:49.386Z,7.81
2019-02-21T04:00:19.339Z,7.81
2019-02-21T04:02:49.296Z,7.80
2019-02-21T04:05:19.909Z,7.80
2019-02-21T04:07:50.521Z,7.78
2019-02-21T04:10:20.475Z,7.78
2019-02-21T04:12:50.351Z,7.79
2019-02-21T04:15:20.413Z,7.81
2019-02-21T04:17:50.353Z,7.81
2019-02-21T04:20:20.358Z,7.82
2019-02-21T04:22:50.371Z,7.84
2019-02-21T04:25:20.344Z,7.85
2019-02-21T04:27:50.291Z,7.86
2019-02-21T04:30:20.254Z,7.88
2019-02-21T04:32:50.222Z,7.88
2019-02-21T04:35:20.024Z,7.89
2019-02-21T04:37:50.265Z,7.88
2019-02-21T04:40:20.074Z,7.89
2019-02-21T04:42:50.018Z,7.87
2019-02-21T04:45:19.978Z,7.86
2019-02-21T04:47:49.926Z,7.83
2019-02-21T04:50:19.817Z,7.80
2019-02-21T04:52:50.027Z,7.76
2019-02-21T04:55:19.908Z,7.71
2019-02-21T04:57:50.201Z,7.68
2019-02-21T05:00:20.901Z,7.65
2019-02-21T05:02:50.767Z,7.60
2019-02-21T05:05:20.654Z,7.57
2019-02-21T05:07:50.863Z,7.50
2019-02-21T05:10:20.705Z,7.46
2019-02-21T05:12:50.504Z,7.40
2019-02-21T05:15:20.840Z,7.35
2019-02-21T05:17:50.795Z,7.30
2019-02-21T05:20:20.733Z,7.25
2019-02-21T05:22:50.923Z,7.19
2019-02-21T05:25:20.795Z,7.15
2019-02-21T05:27:58.157Z,7.12
2019-02-21T05:30:28.399Z,7.08
2019-02-21T05:33:06.899Z,7.05
2019-02-21T05:35:50.054Z,7.04
2019-02-21T05:38:28.680Z,7.03
2019-02-21T05:41:15.381Z,7.00
2019-02-21T05:44:01.275Z,7.00
2019-02-21T05:46:50.475Z,7.01
2019-02-21T05:49:26.591Z,6.99
2019-02-21T05:52:27.911Z,6.99
2019-02-21T05:55:30.087Z,6.98
2019-02-21T05:58:05.250Z,6.98
2019-02-21T06:00:52.572Z,6.96
2019-02-21T06:03:59.894Z,6.96
2019-02-21T06:06:52.536Z,6.94
2019-02-21T06:09:53.900Z,6.93
2019-02-21T06:12:33.477Z,6.92
2019-02-21T06:15:20.998Z,6.92
2019-02-21T06:18:17.924Z,6.92
2019-02-21T06:20:57.916Z,6.93
2019-02-21T06:23:52.695Z,6.90
2019-02-21T06:26:39.968Z,6.90
2019-02-21T06:29:17.251Z,6.92
2019-02-21T06:31:47.207Z,6.91
2019-02-21T06:34:17.241Z,6.91
2019-02-21T06:36:47.428Z,6.92
2019-02-21T06:39:17.734Z,6.94
2019-02-21T06:41:58.714Z,6.94
2019-02-21T06:44:19.626Z,6.91
2019-02-21T06:46:49.573Z,6.89
2019-02-21T06:49:19.478Z,6.89
2019-02-21T06:51:49.694Z,6.88
2019-02-21T06:54:19.674Z,6.90
2019-02-21T06:56:50.740Z,6.89
2019-02-21T06:59:20.709Z,6.88
2019-02-21T07:01:50.579Z,6.88
2019-02-21T07:04:20.460Z,6.89
2019-02-21T07:06:50.332Z,6.89
2019-02-21T07:09:20.297Z,6.89
2019-02-21T07:11:50.242Z,6.89
2019-02-21T07:14:20.122Z,6.90
2019-02-21T07:16:50.660Z,6.90
2019-02-21T07:19:20.566Z,6.89
2019-02-21T07:21:51.012Z,6.90
2019-02-21T07:24:20.824Z,6.92
2019-02-21T07:26:50.769Z,6.94
2019-02-21T07:29:20.723Z,6.97
2019-02-21T07:31:50.677Z,6.99
2019-02-21T07:34:20.879Z,7.03
2019-02-21T07:36:50.842Z,7.06
2019-02-21T07:39:21.017Z,7.10
2019-02-21T07:41:51.048Z,7.15
2019-02-21T07:44:20.933Z,7.21
2019-02-21T07:46:53.341Z,7.27
2019-02-21T07:49:22.848Z,7.35
2019-02-21T07:51:53.028Z,7.46
2019-02-21T07:54:22.995Z,7.56
2019-02-21T07:56:52.952Z,7.64
2019-02-21T07:59:22.913Z,7.71
2019-02-21T08:01:53.187Z,7.80
2019-02-21T08:04:23.072Z,7.85
2019-02-21T08:06:55.568Z,7.88
2019-02-21T08:09:24.567Z,7.92
2019-02-21T08:11:54.771Z,7.94
2019-02-21T08:14:25.038Z,7.98
2019-02-21T08:16:56.123Z,8.04
2019-02-21T08:19:26.533Z,8.11
2019-02-21T08:21:56.418Z,8.16
2019-02-21T08:24:26.215Z,8.22
2019-02-21T08:26:56.511Z,8.28
2019-02-21T08:29:26.460Z,8.34
2019-02-21T08:31:56.415Z,8.41
2019-02-21T08:34:31.277Z,8.48
2019-02-21T08:37:01.228Z,8.54
2019-02-21T08:39:31.175Z,8.63
2019-02-21T08:42:01.072Z,8.68
2019-02-21T08:44:31.013Z,8.73
2019-02-21T08:47:01.036Z,8.80
2019-02-21T08:49:30.907Z,8.85
2019-02-21T08:52:00.779Z,8.91
2019-02-21T08:54:31.120Z,8.96
2019-02-21T08:57:01.087Z,9.02
2019-02-21T08:59:31.254Z,9.07
2019-02-21T09:02:04.874Z,9.14
2019-02-21T09:04:33.535Z,9.19
2019-02-21T09:07:03.893Z,9.23
2019-02-21T09:09:33.769Z,9.27
2019-02-21T09:12:05.626Z,9.30
2019-02-21T09:14:35.860Z,9.34
2019-02-21T09:17:09.312Z,9.40
2019-02-21T09:19:38.507Z,9.44
2019-02-21T09:22:08.583Z,9.47
2019-02-21T09:24:42.297Z,9.52
2019-02-21T09:27:10.795Z,9.55
2019-02-21T09:29:40.750Z,9.60
2019-02-21T09:32:10.624Z,9.62
2019-02-21T09:34:40.498Z,9.64
2019-02-21T09:37:10.799Z,9.66
2019-02-21T09:39:40.681Z,9.63
2019-02-21T09:42:10.685Z,9.68
2019-02-21T09:44:40.637Z,9.69
2019-02-21T09:47:10.602Z,9.70
2019-02-21T09:49:41.256Z,9.74
2019-02-21T09:52:11.206Z,9.78
2019-02-21T09:54:41.097Z,9.87
2019-02-21T09:57:13.641Z,9.98
2019-02-21T09:59:44.731Z,10.11
2019-02-21T10:02:14.753Z,10.19
2019-02-21T10:04:44.929Z,10.27
2019-02-21T10:07:14.892Z,10.32
2019-02-21T10:09:44.876Z,10.38
2019-02-21T10:12:15.809Z,10.44
2019-02-21T10:14:45.767Z,10.51
2019-02-21T10:17:15.723Z,10.57
2019-02-21T10:19:45.526Z,10.62
2019-02-21T10:22:15.502Z,10.64
2019-02-21T10:24:46.548Z,10.67
2019-02-21T10:27:16.500Z,10.70
2019-02-21T10:29:46.576Z,10.72
2019-02-21T10:32:16.859Z,10.77
2019-02-21T10:34:46.844Z,10.81
2019-02-21T10:37:17.155Z,10.86
2019-02-21T10:39:48.011Z,10.90
2019-02-21T10:42:18.362Z,10.95
2019-02-21T10:44:48.336Z,10.99
2019-02-21T10:47:18.677Z,11.08
2019-02-21T10:49:48.623Z,11.17
2019-02-21T10:52:18.651Z,11.20
2019-02-21T10:54:48.616Z,11.16
2019-02-21T10:57:18.576Z,11.13
2019-02-21T10:59:48.520Z,11.10
2019-02-21T11:02:18.796Z,11.09
2019-02-21T11:04:54.939Z,11.11
2019-02-21T11:07:20.329Z,11.17
2019-02-21T11:09:50.293Z,11.28
2019-02-21T11:12:20.246Z,11.40
2019-02-21T11:14:50.222Z,11.51
2019-02-21T11:17:20.195Z,11.63
2019-02-21T11:19:50.153Z,11.73
2019-02-21T11:22:20.154Z,11.83
2019-02-21T11:24:50.118Z,11.98
2019-02-21T11:27:20.098Z,12.10
2019-02-21T11:29:49.898Z,12.20
2019-02-21T11:32:19.780Z,12.27
2019-02-21T11:34:49.655Z,12.36
2019-02-21T11:37:19.918Z,12.42
2019-02-21T11:39:50.086Z,12.46
2019-02-21T11:42:19.995Z,12.54
2019-02-21T11:44:49.871Z,12.64
2019-02-21T11:47:19.871Z,12.73
2019-02-21T11:49:50.033Z,12.77
2019-02-21T11:52:20.022Z,12.79
2019-02-21T11:54:49.922Z,12.79
2019-02-21T11:57:19.893Z,12.77
2019-02-21T11:59:50.202Z,12.75
2019-02-21T12:02:20.436Z,12.75
2019-02-21T12:04:50.387Z,12.71
2019-02-21T12:07:20.346Z,12.62
2019-02-21T12:09:50.370Z,12.58
2019-02-21T12:12:20.261Z,12.52
2019-02-21T12:14:50.215Z,12.48
2019-02-21T12:17:20.174Z,12.48
2019-02-21T12:19:50.338Z,12.51
2019-02-21T12:22:20.611Z,12.53
2019-02-21T12:24:50.887Z,12.57
2019-02-21T12:27:21.122Z,12.61
2019-02-21T12:29:51.328Z,12.67
2019-02-21T12:32:21.336Z,12.69
2019-02-21T12:34:51.209Z,12.68
2019-02-21T12:37:21.378Z,12.68
2019-02-21T12:39:51.328Z,12.67
2019-02-21T12:42:21.622Z,12.67
2019-02-21T12:44:52.293Z,12.66
2019-02-21T12:47:22.209Z,12.66
2019-02-21T12:49:52.080Z,12.65
2019-02-21T12:52:22.157Z,12.64
2019-02-21T12:54:52.030Z,12.69
2019-02-21T12:57:22.625Z,12.74
2019-02-21T12:59:52.645Z,12.82
2019-02-21T13:02:22.523Z,12.91
2019-02-21T13:04:52.704Z,13.04
2019-02-21T13:07:22.875Z,13.11
2019-02-21T13:09:52.820Z,13.13
2019-02-21T13:12:22.788Z,13.18
2019-02-21T13:14:52.740Z,13.26
2019-02-21T13:17:23.150Z,13.31
2019-02-21T13:19:53.051Z,13.35
2019-02-21T13:22:23.166Z,13.43
2019-02-21T13:24:53.056Z,13.48
2019-02-21T13:27:23.342Z,13.47
2019-02-21T13:29:54.682Z,13.45
2019-02-21T13:32:25.029Z,13.42
2019-02-21T13:34:54.920Z,13.34
2019-02-21T13:37:28.581Z,13.30
2019-02-21T13:39:56.863Z,13.20
2019-02-21T13:42:28.879Z,13.12
2019-02-21T13:44:58.998Z,13.03
2019-02-21T13:47:29.045Z,12.93
2019-02-21T13:49:58.942Z,12.83
2019-02-21T13:52:28.902Z,12.75
2019-02-21T13:54:58.991Z,12.63
2019-02-21T13:57:28.964Z,12.49
2019-02-21T13:59:58.950Z,12.39
2019-02-21T14:02:28.835Z,12.26
2019-02-21T14:04:59.037Z,12.15
2019-02-21T14:07:29.047Z,12.05
2019-02-21T14:09:59.914Z,11.96
2019-02-21T14:12:29.907Z,11.93
2019-02-21T14:15:00.212Z,11.89
2019-02-21T14:17:30.262Z,11.89
2019-02-21T14:20:00.591Z,11.89
2019-02-21T14:22:30.580Z,11.90
2019-02-21T14:25:00.562Z,11.94
2019-02-21T14:27:31.855Z,11.98
2019-02-21T14:30:03.076Z,12.03
2019-02-21T14:32:35.302Z,12.07
2019-02-21T14:35:05.517Z,12.12
2019-02-21T14:37:35.368Z,12.14
2019-02-21T14:40:05.908Z,12.13
2019-02-21T14:42:36.319Z,12.13
2019-02-21T14:45:07.345Z,12.12
2019-02-21T14:47:37.688Z,12.11
2019-02-21T14:50:08.189Z,12.12
2019-02-21T14:52:38.415Z,12.12
2019-02-21T14:55:09.549Z,12.13
2019-02-21T14:57:41.157Z,12.12
2019-02-21T15:00:15.189Z,12.11
2019-02-21T15:02:45.649Z,12.10
2019-02-21T15:05:15.639Z,12.11
2019-02-21T15:07:45.595Z,12.14
2019-02-21T15:10:15.988Z,12.21
2019-02-21T15:12:45.971Z,12.22
2019-02-21T15:15:16.894Z,12.23
2019-02-21T15:17:47.919Z,12.21
2019-02-21T15:20:18.107Z,12.24
2019-02-21T15:22:48.058Z,12.26
2019-02-21T15:25:18.847Z,12.30
2019-02-21T15:27:48.802Z,12.30
2019-02-21T15:30:19.732Z,12.27
2019-02-21T15:32:49.707Z,12.26
2019-02-21T15:35:19.918Z,12.24
2019-02-21T15:37:50.322Z,12.23
2019-02-21T15:40:20.290Z,12.23
2019-02-21T15:42:52.553Z,12.22
2019-02-21T15:45:23.739Z,12.20
2019-02-21T15:47:53.974Z,12.19
2019-02-21T15:50:23.879Z,12.17
2019-02-21T15:52:53.784Z,12.16
2019-02-21T15:55:23.751Z,12.15
2019-02-21T15:58:03.482Z,12.15
2019-02-21T16:00:25.415Z,12.14
2019-02-21T16:02:55.339Z,12.15
2019-02-21T16:05:25.871Z,12.13
2019-02-21T16:07:55.838Z,12.14
2019-02-21T16:10:25.811Z,12.14
2019-02-21T16:12:56.429Z,12.13
2019-02-21T16:15:26.808Z,12.12
2019-02-21T16:17:57.366Z,12.11
2019-02-21T16:20:27.709Z,12.08
2019-02-21T16:22:57.594Z,12.07
2019-02-21T16:25:28.497Z,12.05
2019-02-21T16:27:58.464Z,12.04
2019-02-21T16:30:28.685Z,12.04
2019-02-21T16:32:58.965Z,12.03
2019-02-21T16:35:28.845Z,12.03
2019-02-21T16:37:58.856Z,12.01
2019-02-21T16:40:29.773Z,11.96
2019-02-21T16:42:59.739Z,11.93
2019-02-21T16:45:42.447Z,11.90
2019-02-21T16:48:01.414Z,11.85
2019-02-21T16:50:31.850Z,11.82
2019-02-21T16:53:01.788Z,11.78
2019-02-21T16:55:31.917Z,11.76
2019-02-21T16:58:01.773Z,11.71
2019-02-21T17:00:47.684Z,11.68
2019-02-21T17:03:03.705Z,11.66
2019-02-21T17:05:33.605Z,11.64
2019-02-21T17:08:03.558Z,11.64
2019-02-21T17:10:33.596Z,11.60
2019-02-21T17:13:03.543Z,11.59
2019-02-21T17:15:33.494Z,11.55
2019-02-21T17:18:04.058Z,11.55
2019-02-21T17:20:34.110Z,11.55
2019-02-21T17:23:04.079Z,11.57
2019-02-21T17:25:34.335Z,11.57
2019-02-21T17:28:04.292Z,11.56
2019-02-21T17:30:34.197Z,11.55
2019-02-21T17:33:04.079Z,11.55
2019-02-21T17:35:34.232Z,11.57
2019-02-21T17:38:04.113Z,11.56
2019-02-21T17:40:34.095Z,11.58
2019-02-21T17:43:04.043Z,11.59
2019-02-21T17:45:34.208Z,11.59
2019-02-21T17:48:04.270Z,11.59
2019-02-21T17:50:34.295Z,11.60
2019-02-21T17:53:04.242Z,11.60
2019-02-21T17:55:34.278Z,11.61
2019-02-21T17:58:05.478Z,11.61
2019-02-21T18:00:37.275Z,11.60
2019-02-21T18:03:07.346Z,11.60
2019-02-21T18:05:37.312Z,11.60
2019-02-21T18:08:07.266Z,11.58
2019-02-21T18:10:37.233Z,11.57
2019-02-21T18:13:07.194Z,11.58
2019-02-21T18:15:37.148Z,11.57
2019-02-21T18:18:07.109Z,11.56
2019-02-21T18:20:37.049Z,11.56
2019-02-21T18:23:06.932Z,11.56
2019-02-21T18:25:40.018Z,11.54
2019-02-21T18:28:11.075Z,11.54
2019-02-21T18:30:41.038Z,11.52
2019-02-21T18:33:11.039Z,11.52
2019-02-21T18:35:41.008Z,11.50
2019-02-21T18:38:11.307Z,11.49
2019-02-21T18:40:41.255Z,11.47
2019-02-21T18:43:11.215Z,11.46
2019-02-21T18:45:41.175Z,11.44
2019-02-21T18:48:11.133Z,11.43
2019-02-21T18:50:41.085Z,11.40
2019-02-21T18:53:11.068Z,11.38
2019-02-21T18:55:41.078Z,11.36
2019-02-21T18:58:11.025Z,11.35
2019-02-21T19:00:41.046Z,11.33
2019-02-21T19:03:11.060Z,11.32
2019-02-21T19:05:41.031Z,11.31
2019-02-21T19:08:11.273Z,11.31
2019-02-21T19:10:41.241Z,11.29
2019-02-21T19:13:11.112Z,11.26
2019-02-21T19:15:41.279Z,11.27
2019-02-21T19:18:11.631Z,11.26
2019-02-21T19:20:41.662Z,11.26
2019-02-21T19:23:11.814Z,11.25
2019-02-21T19:25:41.801Z,11.23
2019-02-21T19:28:12.122Z,11.23
2019-02-21T19:30:45.868Z,11.22
2019-02-21T19:33:15.887Z,11.21
2019-02-21T19:35:48.408Z,11.20
2019-02-21T19:38:17.650Z,11.19
2019-02-21T19:40:47.669Z,11.18
2019-02-21T19:43:36.776Z,11.18
2019-02-21T19:46:06.797Z,11.18
2019-02-21T19:48:36.839Z,11.17
2019-02-21T19:51:07.243Z,11.16
2019-02-21T19:53:37.212Z,11.13
2019-02-21T19:56:07.202Z,11.12
2019-02-21T19:58:37.103Z,11.10
2019-02-21T20:01:07.366Z,11.10
2019-02-21T20:03:37.405Z,11.08
2019-02-21T20:06:07.394Z,11.06
2019-02-21T20:08:37.385Z,11.05
2019-02-21T20:11:07.447Z,11.04
2019-02-21T20:13:37.418Z,11.03
2019-02-21T20:16:07.558Z,11.02
2019-02-21T20:18:37.491Z,11.00
2019-02-21T20:21:07.634Z,10.97
2019-02-21T20:23:37.591Z,10.96
2019-02-21T20:26:17.876Z,10.94
2019-02-21T20:28:40.428Z,10.93
2019-02-21T20:31:10.792Z,10.94
2019-02-21T20:33:40.935Z,10.93
2019-02-21T20:36:10.895Z,10.93
2019-02-21T20:38:40.873Z,10.93
2019-02-21T20:41:10.933Z,10.94
2019-02-21T20:43:41.300Z,10.94
2019-02-21T20:46:11.306Z,10.92
2019-02-21T20:48:41.478Z,10.92
2019-02-21T20:51:11.457Z,10.91
2019-02-21T20:53:41.412Z,10.92
2019-02-21T20:56:11.413Z,10.93
2019-02-21T20:58:41.703Z,10.92
2019-02-21T21:01:12.607Z,10.91
2019-02-21T21:03:42.610Z,10.92
2019-02-21T21:06:14.117Z,10.92
2019-02-21T21:08:46.688Z,10.92
2019-02-21T21:11:16.067Z,10.90
2019-02-21T21:13:46.082Z,10.89
2019-02-21T21:16:15.957Z,10.88
2019-02-21T21:18:46.070Z,10.88
2019-02-21T21:21:16.036Z,10.87
2019-02-21T21:23:45.998Z,10.87
2019-02-21T21:26:16.311Z,10.87
2019-02-21T21:28:46.614Z,10.88
2019-02-21T21:31:16.590Z,10.89
2019-02-21T21:33:46.474Z,10.89
2019-02-21T21:36:16.454Z,10.88
2019-02-21T21:38:53.800Z,10.89
2019-02-21T21:41:18.031Z,10.89
2019-02-21T21:43:47.929Z,10.91
2019-02-21T21:46:17.895Z,10.92
2019-02-21T21:48:47.787Z,10.94
2019-02-21T21:51:17.769Z,10.96
2019-02-21T21:53:47.743Z,10.95
2019-02-21T21:56:17.727Z,10.97
2019-02-21T21:58:48.708Z,10.98
2019-02-21T22:01:18.983Z,10.98
2019-02-21T22:03:49.177Z,10.98
2019-02-21T22:06:19.170Z,10.99
2019-02-21T22:08:49.101Z,11.00
2019-02-21T22:11:19.425Z,11.00
2019-02-21T22:13:49.398Z,11.00
2019-02-21T22:16:19.363Z,10.99
2019-02-21T22:18:49.271Z,10.98
2019-02-21T22:21:19.545Z,10.97
2019-02-21T22:23:49.514Z,10.96
2019-02-21T22:26:19.515Z,10.96
2019-02-21T22:28:49.842Z,10.94
2019-02-21T22:31:20.107Z,10.93
2019-02-21T22:33:49.976Z,10.92
2019-02-21T22:36:20.245Z,10.91
2019-02-21T22:38:50.208Z,10.91
2019-02-21T22:41:20.446Z,10.89
2019-02-21T22:43:50.495Z,10.87
2019-02-21T22:46:20.493Z,10.86
2019-02-21T22:48:50.389Z,10.85
2019-02-21T22:51:20.638Z,10.83
2019-02-21T22:53:50.695Z,10.83
2019-02-21T22:56:20.677Z,10.81
2019-02-21T22:58:50.644Z,10.80
2019-02-21T23:01:28.175Z,10.77
2019-02-21T23:04:43.086Z,10.77
2019-02-21T23:07:43.426Z,10.73
2019-02-21T23:10:13.836Z,10.70
2019-02-21T23:12:43.809Z,10.68
2019-02-21T23:15:15.595Z,10.64
2019-02-21T23:17:45.489Z,10.62
2019-02-21T23:20:15.503Z,10.61
2019-02-21T23:22:45.467Z,10.61
2019-02-21T23:25:15.470Z,10.58
2019-02-21T23:27:45.445Z,10.57
2019-02-21T23:30:15.606Z,10.56
2019-02-21T23:32:46.522Z,10.54
2019-02-21T23:35:21.104Z,10.54
2019-02-21T23:37:52.133Z,10.53
2019-02-21T23:40:22.945Z,10.51
2019-02-21T23:42:52.924Z,10.52
2019-02-21T23:45:22.923Z,10.52
2019-02-21T23:47:52.909Z,10.50
2019-02-21T23:50:22.715Z,10.49
2019-02-21T23:52:52.593Z,10.48
2019-02-21T23:55:22.815Z,10.48
2019-02-21T23:57:53.146Z,10.45
